sensor_id;sensor_type;location;lat;lon;timestamp;temperature;humidity
8481;DHT22;4277;51.354;6.740;2022-10-16T00:00:27;13.80;99.90
8481;DHT22;4277;51.354;6.740;2022-10-16T00:02:53;13.70;99.90
8481;DHT22;4277;51.354;6.740;2022-10-16T00:05:18;13.70;99.90
8481;DHT22;4277;51.354;6.740;2022-10-16T00:07:44;13.70;99.90
8481;DHT22;4277;51.354;6.740;2022-10-16T00:10:09;13.70;99.90
8481;DHT22;4277;51.354;6.740;2022-10-16T00:12:35;13.70;99.90
8481;DHT22;4277;51.354;6.740;2022-10-16T00:15:00;13.70;99.90
8481;DHT22;4277;51.354;6.740;2022-10-16T00:17:26;13.70;99.90
8481;DHT22;4277;51.354;6.740;2022-10-16T00:19:51;13.70;99.90
8481;DHT22;4277;51.354;6.740;2022-10-16T00:22:17;13.60;99.90
8481;DHT22;4277;51.354;6.740;2022-10-16T00:24:42;13.60;99.90
8481;DHT22;4277;51.354;6.740;2022-10-16T00:27:08;13.60;99.90
8481;DHT22;4277;51.354;6.740;2022-10-16T00:29:33;13.60;99.90
8481;DHT22;4277;51.354;6.740;2022-10-16T00:31:59;13.50;99.90
8481;DHT22;4277;51.354;6.740;2022-10-16T00:34:24;13.50;99.90
8481;DHT22;4277;51.354;6.740;2022-10-16T00:36:50;13.50;99.90
8481;DHT22;4277;51.354;6.740;2022-10-16T00:39:15;13.50;99.90
8481;DHT22;4277;51.354;6.740;2022-10-16T00:41:41;13.60;99.90
8481;DHT22;4277;51.354;6.740;2022-10-16T00:47:13;13.50;99.90
8481;DHT22;4277;51.354;6.740;2022-10-16T00:49:41;13.60;99.90
8481;DHT22;4277;51.354;6.740;2022-10-16T00:52:06;13.60;99.90
8481;DHT22;4277;51.354;6.740;2022-10-16T00:54:32;13.50;99.90
8481;DHT22;4277;51.354;6.740;2022-10-16T00:57:01;13.50;99.90
8481;DHT22;4277;51.354;6.740;2022-10-16T00:59:38;13.50;99.90
8481;DHT22;4277;51.354;6.740;2022-10-16T01:02:08;13.50;99.90
8481;DHT22;4277;51.354;6.740;2022-10-16T01:04:42;13.50;99.90
8481;DHT22;4277;51.354;6.740;2022-10-16T01:17:58;13.40;99.90
8481;DHT22;4277;51.354;6.740;2022-10-16T01:23:02;13.40;99.90
8481;DHT22;4277;51.354;6.740;2022-10-16T01:28:22;13.40;99.90
8481;DHT22;4277;51.354;6.740;2022-10-16T01:30:52;13.40;99.90
8481;DHT22;4277;51.354;6.740;2022-10-16T01:33:24;13.40;99.90
8481;DHT22;4277;51.354;6.740;2022-10-16T01:35:58;13.40;99.90
8481;DHT22;4277;51.354;6.740;2022-10-16T01:38:30;13.30;99.90
8481;DHT22;4277;51.354;6.740;2022-10-16T01:41:01;13.30;99.90
8481;DHT22;4277;51.354;6.740;2022-10-16T01:46:00;13.30;99.90
8481;DHT22;4277;51.354;6.740;2022-10-16T01:48:26;13.30;99.90
8481;DHT22;4277;51.354;6.740;2022-10-16T01:51:12;13.30;99.90
8481;DHT22;4277;51.354;6.740;2022-10-16T01:53:40;13.30;99.90
8481;DHT22;4277;51.354;6.740;2022-10-16T01:56:10;13.30;99.90
8481;DHT22;4277;51.354;6.740;2022-10-16T01:58:48;13.40;99.90
8481;DHT22;4277;51.354;6.740;2022-10-16T02:01:17;13.30;99.90
8481;DHT22;4277;51.354;6.740;2022-10-16T02:03:44;13.30;99.90
8481;DHT22;4277;51.354;6.740;2022-10-16T02:06:12;13.30;99.90
8481;DHT22;4277;51.354;6.740;2022-10-16T02:08:38;13.20;99.90
8481;DHT22;4277;51.354;6.740;2022-10-16T02:11:06;13.20;99.90
8481;DHT22;4277;51.354;6.740;2022-10-16T02:13:45;13.20;99.90
8481;DHT22;4277;51.354;6.740;2022-10-16T02:16:12;13.20;99.90
8481;DHT22;4277;51.354;6.740;2022-10-16T02:18:39;13.20;99.90
8481;DHT22;4277;51.354;6.740;2022-10-16T02:21:19;13.20;99.90
8481;DHT22;4277;51.354;6.740;2022-10-16T02:23:59;13.10;99.90
8481;DHT22;4277;51.354;6.740;2022-10-16T02:26:48;13.20;99.90
8481;DHT22;4277;51.354;6.740;2022-10-16T02:29:18;13.20;99.90
8481;DHT22;4277;51.354;6.740;2022-10-16T02:31:48;13.20;99.90
8481;DHT22;4277;51.354;6.740;2022-10-16T02:34:16;13.20;99.90
8481;DHT22;4277;51.354;6.740;2022-10-16T02:36:44;13.30;99.90
8481;DHT22;4277;51.354;6.740;2022-10-16T02:39:11;13.20;99.90
8481;DHT22;4277;51.354;6.740;2022-10-16T02:41:37;13.30;99.90
8481;DHT22;4277;51.354;6.740;2022-10-16T02:44:03;13.30;99.90
8481;DHT22;4277;51.354;6.740;2022-10-16T02:46:29;13.30;99.90
8481;DHT22;4277;51.354;6.740;2022-10-16T02:48:54;13.30;99.90
8481;DHT22;4277;51.354;6.740;2022-10-16T02:51:20;13.30;99.90
8481;DHT22;4277;51.354;6.740;2022-10-16T02:53:45;13.30;99.90
8481;DHT22;4277;51.354;6.740;2022-10-16T02:56:11;13.30;99.90
8481;DHT22;4277;51.354;6.740;2022-10-16T02:58:36;13.30;99.90
8481;DHT22;4277;51.354;6.740;2022-10-16T03:01:02;13.30;99.90
8481;DHT22;4277;51.354;6.740;2022-10-16T03:03:28;13.30;99.90
8481;DHT22;4277;51.354;6.740;2022-10-16T03:05:53;13.20;99.90
8481;DHT22;4277;51.354;6.740;2022-10-16T03:08:19;13.30;99.90
8481;DHT22;4277;51.354;6.740;2022-10-16T03:10:49;13.30;99.90
8481;DHT22;4277;51.354;6.740;2022-10-16T03:13:14;13.20;99.90
8481;DHT22;4277;51.354;6.740;2022-10-16T03:15:40;13.30;99.90
8481;DHT22;4277;51.354;6.740;2022-10-16T03:18:05;13.30;99.90
8481;DHT22;4277;51.354;6.740;2022-10-16T03:20:31;13.20;99.90
8481;DHT22;4277;51.354;6.740;2022-10-16T03:22:57;13.20;99.90
8481;DHT22;4277;51.354;6.740;2022-10-16T03:25:22;13.20;99.90
8481;DHT22;4277;51.354;6.740;2022-10-16T03:27:48;13.20;99.90
8481;DHT22;4277;51.354;6.740;2022-10-16T03:30:16;13.20;99.90
8481;DHT22;4277;51.354;6.740;2022-10-16T03:32:43;13.20;99.90
8481;DHT22;4277;51.354;6.740;2022-10-16T03:35:10;13.20;99.90
8481;DHT22;4277;51.354;6.740;2022-10-16T03:37:35;13.20;99.90
8481;DHT22;4277;51.354;6.740;2022-10-16T03:40:02;13.20;99.90
8481;DHT22;4277;51.354;6.740;2022-10-16T03:42:28;13.20;99.90
8481;DHT22;4277;51.354;6.740;2022-10-16T03:44:54;13.10;99.90
8481;DHT22;4277;51.354;6.740;2022-10-16T03:47:19;13.10;99.90
8481;DHT22;4277;51.354;6.740;2022-10-16T03:49:47;13.10;99.90
8481;DHT22;4277;51.354;6.740;2022-10-16T03:52:13;13.10;99.90
8481;DHT22;4277;51.354;6.740;2022-10-16T03:54:39;13.10;99.90
8481;DHT22;4277;51.354;6.740;2022-10-16T03:57:04;13.10;99.90
8481;DHT22;4277;51.354;6.740;2022-10-16T03:59:30;13.00;99.90
8481;DHT22;4277;51.354;6.740;2022-10-16T04:01:55;13.00;99.90
8481;DHT22;4277;51.354;6.740;2022-10-16T04:04:21;13.00;99.90
8481;DHT22;4277;51.354;6.740;2022-10-16T04:06:46;13.00;99.90
8481;DHT22;4277;51.354;6.740;2022-10-16T04:09:12;13.10;99.90
8481;DHT22;4277;51.354;6.740;2022-10-16T04:11:37;13.10;99.90
8481;DHT22;4277;51.354;6.740;2022-10-16T04:14:04;13.10;99.90
8481;DHT22;4277;51.354;6.740;2022-10-16T04:16:29;13.10;99.90
8481;DHT22;4277;51.354;6.740;2022-10-16T04:18:55;13.10;99.90
8481;DHT22;4277;51.354;6.740;2022-10-16T04:21:20;13.10;99.90
8481;DHT22;4277;51.354;6.740;2022-10-16T04:23:46;13.10;99.90
8481;DHT22;4277;51.354;6.740;2022-10-16T04:26:11;13.10;99.90
8481;DHT22;4277;51.354;6.740;2022-10-16T04:28:37;13.00;99.90
8481;DHT22;4277;51.354;6.740;2022-10-16T04:31:06;13.00;99.90
8481;DHT22;4277;51.354;6.740;2022-10-16T04:33:33;13.00;99.90
8481;DHT22;4277;51.354;6.740;2022-10-16T04:36:02;12.90;99.90
8481;DHT22;4277;51.354;6.740;2022-10-16T04:38:28;12.90;99.90
8481;DHT22;4277;51.354;6.740;2022-10-16T04:40:54;12.90;99.90
8481;DHT22;4277;51.354;6.740;2022-10-16T04:43:20;12.80;99.90
8481;DHT22;4277;51.354;6.740;2022-10-16T04:45:45;12.80;99.90
8481;DHT22;4277;51.354;6.740;2022-10-16T04:48:11;12.80;99.90
8481;DHT22;4277;51.354;6.740;2022-10-16T04:50:37;12.80;99.90
8481;DHT22;4277;51.354;6.740;2022-10-16T04:53:02;12.80;99.90
8481;DHT22;4277;51.354;6.740;2022-10-16T04:55:28;12.80;99.90
8481;DHT22;4277;51.354;6.740;2022-10-16T04:57:53;12.80;99.90
8481;DHT22;4277;51.354;6.740;2022-10-16T05:00:19;12.80;99.90
8481;DHT22;4277;51.354;6.740;2022-10-16T05:02:44;12.80;99.90
8481;DHT22;4277;51.354;6.740;2022-10-16T05:05:10;12.80;99.90
8481;DHT22;4277;51.354;6.740;2022-10-16T05:07:35;12.80;99.90
8481;DHT22;4277;51.354;6.740;2022-10-16T05:10:01;12.80;99.90
8481;DHT22;4277;51.354;6.740;2022-10-16T05:12:27;12.90;99.90
8481;DHT22;4277;51.354;6.740;2022-10-16T05:14:52;12.90;99.90
8481;DHT22;4277;51.354;6.740;2022-10-16T05:17:18;12.90;99.90
8481;DHT22;4277;51.354;6.740;2022-10-16T05:19:43;12.90;99.90
8481;DHT22;4277;51.354;6.740;2022-10-16T05:22:09;12.90;99.90
8481;DHT22;4277;51.354;6.740;2022-10-16T05:24:34;12.90;99.90
8481;DHT22;4277;51.354;6.740;2022-10-16T05:27:00;12.90;99.90
8481;DHT22;4277;51.354;6.740;2022-10-16T05:29:25;12.90;99.90
8481;DHT22;4277;51.354;6.740;2022-10-16T05:31:52;12.90;99.90
8481;DHT22;4277;51.354;6.740;2022-10-16T05:34:18;12.90;99.90
8481;DHT22;4277;51.354;6.740;2022-10-16T05:36:44;12.90;99.90
8481;DHT22;4277;51.354;6.740;2022-10-16T05:39:10;12.80;99.90
8481;DHT22;4277;51.354;6.740;2022-10-16T05:41:36;12.80;99.90
8481;DHT22;4277;51.354;6.740;2022-10-16T05:44:04;12.80;99.90
8481;DHT22;4277;51.354;6.740;2022-10-16T05:46:31;12.80;99.90
8481;DHT22;4277;51.354;6.740;2022-10-16T05:48:56;12.80;99.90
8481;DHT22;4277;51.354;6.740;2022-10-16T05:51:22;12.80;99.90
8481;DHT22;4277;51.354;6.740;2022-10-16T05:53:47;12.80;99.90
8481;DHT22;4277;51.354;6.740;2022-10-16T05:56:13;12.80;99.90
8481;DHT22;4277;51.354;6.740;2022-10-16T05:58:39;12.80;99.90
8481;DHT22;4277;51.354;6.740;2022-10-16T06:01:14;12.80;99.90
8481;DHT22;4277;51.354;6.740;2022-10-16T06:03:40;12.70;99.90
8481;DHT22;4277;51.354;6.740;2022-10-16T06:06:14;12.70;99.90
8481;DHT22;4277;51.354;6.740;2022-10-16T06:08:41;12.70;99.90
8481;DHT22;4277;51.354;6.740;2022-10-16T06:11:09;12.70;99.90
8481;DHT22;4277;51.354;6.740;2022-10-16T06:13:35;12.70;99.90
8481;DHT22;4277;51.354;6.740;2022-10-16T06:16:02;12.60;99.90
8481;DHT22;4277;51.354;6.740;2022-10-16T06:18:29;12.70;99.90
8481;DHT22;4277;51.354;6.740;2022-10-16T06:20:56;12.70;99.90
8481;DHT22;4277;51.354;6.740;2022-10-16T06:23:22;12.70;99.90
8481;DHT22;4277;51.354;6.740;2022-10-16T06:25:48;12.70;99.90
8481;DHT22;4277;51.354;6.740;2022-10-16T06:28:14;12.70;99.90
8481;DHT22;4277;51.354;6.740;2022-10-16T06:30:40;12.60;99.90
8481;DHT22;4277;51.354;6.740;2022-10-16T06:33:06;12.70;99.90
8481;DHT22;4277;51.354;6.740;2022-10-16T06:35:31;12.70;99.90
8481;DHT22;4277;51.354;6.740;2022-10-16T06:37:57;12.70;99.90
8481;DHT22;4277;51.354;6.740;2022-10-16T06:40:23;12.70;99.90
8481;DHT22;4277;51.354;6.740;2022-10-16T06:42:49;12.70;99.90
8481;DHT22;4277;51.354;6.740;2022-10-16T06:45:14;12.70;99.90
8481;DHT22;4277;51.354;6.740;2022-10-16T06:47:40;12.70;99.90
8481;DHT22;4277;51.354;6.740;2022-10-16T06:50:06;12.80;99.90
8481;DHT22;4277;51.354;6.740;2022-10-16T06:52:34;12.80;99.90
8481;DHT22;4277;51.354;6.740;2022-10-16T06:55:00;12.80;99.90
8481;DHT22;4277;51.354;6.740;2022-10-16T06:57:26;12.80;99.90
8481;DHT22;4277;51.354;6.740;2022-10-16T06:59:51;12.80;99.90
8481;DHT22;4277;51.354;6.740;2022-10-16T07:02:17;12.80;99.90
8481;DHT22;4277;51.354;6.740;2022-10-16T07:04:42;12.80;99.90
8481;DHT22;4277;51.354;6.740;2022-10-16T07:07:08;12.80;99.90
8481;DHT22;4277;51.354;6.740;2022-10-16T07:09:33;12.90;99.90
8481;DHT22;4277;51.354;6.740;2022-10-16T07:11:59;12.80;99.90
8481;DHT22;4277;51.354;6.740;2022-10-16T07:14:24;12.80;99.90
8481;DHT22;4277;51.354;6.740;2022-10-16T07:16:50;12.80;99.90
8481;DHT22;4277;51.354;6.740;2022-10-16T07:19:16;12.80;99.90
8481;DHT22;4277;51.354;6.740;2022-10-16T07:21:43;12.80;99.90
8481;DHT22;4277;51.354;6.740;2022-10-16T07:24:12;12.80;99.90
8481;DHT22;4277;51.354;6.740;2022-10-16T07:26:39;12.80;99.90
8481;DHT22;4277;51.354;6.740;2022-10-16T07:29:11;12.80;99.90
8481;DHT22;4277;51.354;6.740;2022-10-16T07:31:38;12.90;99.90
8481;DHT22;4277;51.354;6.740;2022-10-16T07:34:04;12.90;99.90
8481;DHT22;4277;51.354;6.740;2022-10-16T07:36:30;12.90;99.90
8481;DHT22;4277;51.354;6.740;2022-10-16T07:38:55;13.00;99.90
8481;DHT22;4277;51.354;6.740;2022-10-16T07:41:21;13.10;99.90
8481;DHT22;4277;51.354;6.740;2022-10-16T07:43:48;13.10;99.90
8481;DHT22;4277;51.354;6.740;2022-10-16T07:46:14;13.20;99.90
8481;DHT22;4277;51.354;6.740;2022-10-16T07:48:40;13.30;99.90
8481;DHT22;4277;51.354;6.740;2022-10-16T07:51:07;13.30;99.90
8481;DHT22;4277;51.354;6.740;2022-10-16T07:53:33;13.40;99.90
8481;DHT22;4277;51.354;6.740;2022-10-16T07:56:05;13.50;99.90
8481;DHT22;4277;51.354;6.740;2022-10-16T07:58:32;13.50;99.90
8481;DHT22;4277;51.354;6.740;2022-10-16T08:00:58;13.60;99.90
8481;DHT22;4277;51.354;6.740;2022-10-16T08:03:25;13.60;99.90
8481;DHT22;4277;51.354;6.740;2022-10-16T08:05:51;13.70;99.90
8481;DHT22;4277;51.354;6.740;2022-10-16T08:08:17;13.70;99.90
8481;DHT22;4277;51.354;6.740;2022-10-16T08:10:44;13.80;99.90
8481;DHT22;4277;51.354;6.740;2022-10-16T08:13:09;13.90;99.90
8481;DHT22;4277;51.354;6.740;2022-10-16T08:15:35;14.00;99.90
8481;DHT22;4277;51.354;6.740;2022-10-16T08:18:03;14.10;99.90
8481;DHT22;4277;51.354;6.740;2022-10-16T08:20:30;14.10;99.90
8481;DHT22;4277;51.354;6.740;2022-10-16T08:22:56;14.20;99.90
8481;DHT22;4277;51.354;6.740;2022-10-16T08:25:23;14.30;99.90
8481;DHT22;4277;51.354;6.740;2022-10-16T08:27:49;14.30;99.90
8481;DHT22;4277;51.354;6.740;2022-10-16T08:30:15;14.30;99.90
8481;DHT22;4277;51.354;6.740;2022-10-16T08:32:41;14.40;99.90
8481;DHT22;4277;51.354;6.740;2022-10-16T08:35:08;14.40;99.90
8481;DHT22;4277;51.354;6.740;2022-10-16T08:37:34;14.40;99.90
8481;DHT22;4277;51.354;6.740;2022-10-16T08:40:00;14.50;99.90
8481;DHT22;4277;51.354;6.740;2022-10-16T08:45:15;14.60;99.90
8481;DHT22;4277;51.354;6.740;2022-10-16T08:50:35;14.80;99.90
8481;DHT22;4277;51.354;6.740;2022-10-16T08:53:04;14.80;99.90
8481;DHT22;4277;51.354;6.740;2022-10-16T08:55:43;14.80;99.90
8481;DHT22;4277;51.354;6.740;2022-10-16T08:58:17;14.70;99.90
8481;DHT22;4277;51.354;6.740;2022-10-16T09:00:53;14.80;99.90
8481;DHT22;4277;51.354;6.740;2022-10-16T09:06:16;15.00;99.90
8481;DHT22;4277;51.354;6.740;2022-10-16T09:11:57;15.00;99.90
8481;DHT22;4277;51.354;6.740;2022-10-16T09:17:22;15.10;99.90
8481;DHT22;4277;51.354;6.740;2022-10-16T09:20:00;15.10;99.90
8481;DHT22;4277;51.354;6.740;2022-10-16T09:22:29;15.20;99.90
8481;DHT22;4277;51.354;6.740;2022-10-16T09:25:00;15.20;99.90
8481;DHT22;4277;51.354;6.740;2022-10-16T09:27:26;15.30;99.90
8481;DHT22;4277;51.354;6.740;2022-10-16T09:29:52;15.30;99.90
8481;DHT22;4277;51.354;6.740;2022-10-16T09:32:19;15.40;99.90
8481;DHT22;4277;51.354;6.740;2022-10-16T09:34:49;15.40;99.90
8481;DHT22;4277;51.354;6.740;2022-10-16T09:37:22;15.50;99.90
8481;DHT22;4277;51.354;6.740;2022-10-16T09:39:55;15.50;99.90
8481;DHT22;4277;51.354;6.740;2022-10-16T09:42:31;15.50;99.90
8481;DHT22;4277;51.354;6.740;2022-10-16T09:44:58;15.60;99.90
8481;DHT22;4277;51.354;6.740;2022-10-16T09:47:28;15.60;99.90
8481;DHT22;4277;51.354;6.740;2022-10-16T09:49:58;15.70;99.90
8481;DHT22;4277;51.354;6.740;2022-10-16T09:52:28;15.80;99.90
8481;DHT22;4277;51.354;6.740;2022-10-16T09:55:03;15.80;99.90
8481;DHT22;4277;51.354;6.740;2022-10-16T09:57:47;15.80;99.90
8481;DHT22;4277;51.354;6.740;2022-10-16T10:00:16;15.70;99.90
8481;DHT22;4277;51.354;6.740;2022-10-16T10:02:42;15.80;99.90
8481;DHT22;4277;51.354;6.740;2022-10-16T10:05:20;15.90;99.90
8481;DHT22;4277;51.354;6.740;2022-10-16T10:08:00;16.00;99.90
8481;DHT22;4277;51.354;6.740;2022-10-16T10:10:30;16.10;99.90
8481;DHT22;4277;51.354;6.740;2022-10-16T10:12:57;16.10;99.90
8481;DHT22;4277;51.354;6.740;2022-10-16T10:15:23;16.00;99.90
8481;DHT22;4277;51.354;6.740;2022-10-16T10:17:54;16.00;99.90
8481;DHT22;4277;51.354;6.740;2022-10-16T10:20:27;16.20;99.90
8481;DHT22;4277;51.354;6.740;2022-10-16T10:22:54;16.20;99.90
8481;DHT22;4277;51.354;6.740;2022-10-16T10:25:36;16.10;99.90
8481;DHT22;4277;51.354;6.740;2022-10-16T10:33:26;16.20;99.90
8481;DHT22;4277;51.354;6.740;2022-10-16T10:36:12;16.30;99.90
8481;DHT22;4277;51.354;6.740;2022-10-16T10:38:47;16.50;99.90
8481;DHT22;4277;51.354;6.740;2022-10-16T10:43:59;16.70;99.90
8481;DHT22;4277;51.354;6.740;2022-10-16T10:46:54;16.70;99.90
8481;DHT22;4277;51.354;6.740;2022-10-16T10:52:26;16.50;99.90
8481;DHT22;4277;51.354;6.740;2022-10-16T10:55:03;16.50;99.90
8481;DHT22;4277;51.354;6.740;2022-10-16T11:00:34;16.60;99.90
8481;DHT22;4277;51.354;6.740;2022-10-16T11:06:11;16.60;99.90
8481;DHT22;4277;51.354;6.740;2022-10-16T11:08:49;16.70;99.90
8481;DHT22;4277;51.354;6.740;2022-10-16T11:13:59;16.90;99.90
8481;DHT22;4277;51.354;6.740;2022-10-16T11:16:44;17.10;99.90
8481;DHT22;4277;51.354;6.740;2022-10-16T11:19:37;17.20;99.90
8481;DHT22;4277;51.354;6.740;2022-10-16T11:24:46;17.00;99.90
8481;DHT22;4277;51.354;6.740;2022-10-16T11:27:24;17.10;99.90
8481;DHT22;4277;51.354;6.740;2022-10-16T11:29:58;17.10;99.90
8481;DHT22;4277;51.354;6.740;2022-10-16T11:32:30;17.30;99.90
8481;DHT22;4277;51.354;6.740;2022-10-16T11:35:11;17.40;99.90
8481;DHT22;4277;51.354;6.740;2022-10-16T11:37:43;17.50;99.90
8481;DHT22;4277;51.354;6.740;2022-10-16T11:42:59;17.40;99.90
8481;DHT22;4277;51.354;6.740;2022-10-16T11:48:33;17.40;99.90
8481;DHT22;4277;51.354;6.740;2022-10-16T11:51:29;17.40;99.90
8481;DHT22;4277;51.354;6.740;2022-10-16T12:00:24;17.60;99.90
8481;DHT22;4277;51.354;6.740;2022-10-16T12:03:15;17.80;99.90
8481;DHT22;4277;51.354;6.740;2022-10-16T12:08:28;17.80;99.90
8481;DHT22;4277;51.354;6.740;2022-10-16T12:11:19;17.80;99.90
8481;DHT22;4277;51.354;6.740;2022-10-16T12:13:46;17.70;99.90
8481;DHT22;4277;51.354;6.740;2022-10-16T12:18:44;17.60;99.90
8481;DHT22;4277;51.354;6.740;2022-10-16T12:21:11;17.60;99.90
8481;DHT22;4277;51.354;6.740;2022-10-16T12:23:51;17.60;99.90
8481;DHT22;4277;51.354;6.740;2022-10-16T12:26:29;17.70;99.90
8481;DHT22;4277;51.354;6.740;2022-10-16T12:29:12;17.70;99.90
8481;DHT22;4277;51.354;6.740;2022-10-16T12:31:46;17.70;99.90
8481;DHT22;4277;51.354;6.740;2022-10-16T12:34:42;17.80;99.90
8481;DHT22;4277;51.354;6.740;2022-10-16T12:37:35;17.80;99.90
8481;DHT22;4277;51.354;6.740;2022-10-16T12:40:13;17.70;99.90
8481;DHT22;4277;51.354;6.740;2022-10-16T12:42:39;17.80;99.90
8481;DHT22;4277;51.354;6.740;2022-10-16T12:47:51;17.60;99.90
8481;DHT22;4277;51.354;6.740;2022-10-16T12:50:26;17.60;99.90
8481;DHT22;4277;51.354;6.740;2022-10-16T12:52:52;17.60;99.90
8481;DHT22;4277;51.354;6.740;2022-10-16T12:55:20;17.70;99.90
8481;DHT22;4277;51.354;6.740;2022-10-16T12:58:09;17.70;99.90
8481;DHT22;4277;51.354;6.740;2022-10-16T13:00:44;17.60;99.90
8481;DHT22;4277;51.354;6.740;2022-10-16T13:06:11;17.70;99.90
8481;DHT22;4277;51.354;6.740;2022-10-16T13:11:43;17.70;99.90
8481;DHT22;4277;51.354;6.740;2022-10-16T13:14:27;17.70;99.90
8481;DHT22;4277;51.354;6.740;2022-10-16T13:22:51;17.50;99.90
8481;DHT22;4277;51.354;6.740;2022-10-16T13:25:31;17.50;99.90
8481;DHT22;4277;51.354;6.740;2022-10-16T13:28:09;17.40;99.90
8481;DHT22;4277;51.354;6.740;2022-10-16T13:30:42;17.50;99.90
8481;DHT22;4277;51.354;6.740;2022-10-16T13:33:16;17.50;99.90
8481;DHT22;4277;51.354;6.740;2022-10-16T13:35:56;17.60;99.90
8481;DHT22;4277;51.354;6.740;2022-10-16T13:38:27;17.70;99.90
8481;DHT22;4277;51.354;6.740;2022-10-16T13:40:58;17.70;99.90
8481;DHT22;4277;51.354;6.740;2022-10-16T13:43:44;17.70;99.90
8481;DHT22;4277;51.354;6.740;2022-10-16T13:46:16;17.70;99.90
8481;DHT22;4277;51.354;6.740;2022-10-16T13:48:42;17.70;99.90
8481;DHT22;4277;51.354;6.740;2022-10-16T13:51:16;17.70;99.90
8481;DHT22;4277;51.354;6.740;2022-10-16T13:53:43;17.80;99.90
8481;DHT22;4277;51.354;6.740;2022-10-16T13:56:14;17.90;99.90
8481;DHT22;4277;51.354;6.740;2022-10-16T13:58:40;17.80;99.90
8481;DHT22;4277;51.354;6.740;2022-10-16T14:01:18;18.00;95.70
8481;DHT22;4277;51.354;6.740;2022-10-16T14:03:45;18.10;96.90
8481;DHT22;4277;51.354;6.740;2022-10-16T14:06:17;18.30;94.20
8481;DHT22;4277;51.354;6.740;2022-10-16T14:08:50;18.40;97.70
8481;DHT22;4277;51.354;6.740;2022-10-16T14:11:22;18.50;95.00
8481;DHT22;4277;51.354;6.740;2022-10-16T14:13:50;18.50;90.70
8481;DHT22;4277;51.354;6.740;2022-10-16T14:16:26;18.40;95.30
8481;DHT22;4277;51.354;6.740;2022-10-16T14:19:04;18.30;99.90
8481;DHT22;4277;51.354;6.740;2022-10-16T14:21:35;18.10;99.00
8481;DHT22;4277;51.354;6.740;2022-10-16T14:24:12;18.00;99.90
8481;DHT22;4277;51.354;6.740;2022-10-16T14:26:44;17.90;97.70
8481;DHT22;4277;51.354;6.740;2022-10-16T14:29:15;17.80;99.90
8481;DHT22;4277;51.354;6.740;2022-10-16T14:31:42;17.80;99.90
8481;DHT22;4277;51.354;6.740;2022-10-16T14:34:32;17.90;99.90
8481;DHT22;4277;51.354;6.740;2022-10-16T14:37:08;17.90;99.90
8481;DHT22;4277;51.354;6.740;2022-10-16T14:39:35;17.90;99.90
8481;DHT22;4277;51.354;6.740;2022-10-16T14:42:00;17.90;99.90
8481;DHT22;4277;51.354;6.740;2022-10-16T14:44:32;17.80;99.90
8481;DHT22;4277;51.354;6.740;2022-10-16T14:47:06;17.80;99.90
8481;DHT22;4277;51.354;6.740;2022-10-16T14:49:32;17.70;99.90
8481;DHT22;4277;51.354;6.740;2022-10-16T14:51:57;17.70;99.90
8481;DHT22;4277;51.354;6.740;2022-10-16T14:54:23;17.70;99.90
8481;DHT22;4277;51.354;6.740;2022-10-16T14:56:54;18.40;99.90
8481;DHT22;4277;51.354;6.740;2022-10-16T14:59:41;17.60;99.90
8481;DHT22;4277;51.354;6.740;2022-10-16T15:02:35;17.50;99.90
8481;DHT22;4277;51.354;6.740;2022-10-16T15:07:45;17.30;99.90
8481;DHT22;4277;51.354;6.740;2022-10-16T15:10:11;17.20;99.90
8481;DHT22;4277;51.354;6.740;2022-10-16T15:12:37;17.20;99.90
8481;DHT22;4277;51.354;6.740;2022-10-16T15:15:24;17.10;99.90
8481;DHT22;4277;51.354;6.740;2022-10-16T15:17:51;17.00;99.90
8481;DHT22;4277;51.354;6.740;2022-10-16T15:20:19;16.90;99.90
8481;DHT22;4277;51.354;6.740;2022-10-16T15:22:44;16.90;99.90
8481;DHT22;4277;51.354;6.740;2022-10-16T15:25:38;16.90;99.90
8481;DHT22;4277;51.354;6.740;2022-10-16T15:28:05;16.90;99.90
8481;DHT22;4277;51.354;6.740;2022-10-16T15:30:32;16.80;99.90
8481;DHT22;4277;51.354;6.740;2022-10-16T15:32:58;16.80;99.90
8481;DHT22;4277;51.354;6.740;2022-10-16T15:35:24;16.70;99.90
8481;DHT22;4277;51.354;6.740;2022-10-16T15:37:49;16.70;99.90
8481;DHT22;4277;51.354;6.740;2022-10-16T15:40:17;16.70;99.90
8481;DHT22;4277;51.354;6.740;2022-10-16T15:42:43;16.70;99.90
8481;DHT22;4277;51.354;6.740;2022-10-16T15:45:10;16.70;99.90
8481;DHT22;4277;51.354;6.740;2022-10-16T15:47:36;16.50;99.90
8481;DHT22;4277;51.354;6.740;2022-10-16T15:50:03;16.70;99.90
8481;DHT22;4277;51.354;6.740;2022-10-16T15:52:29;16.70;99.90
8481;DHT22;4277;51.354;6.740;2022-10-16T15:54:54;16.70;99.90
8481;DHT22;4277;51.354;6.740;2022-10-16T15:57:20;16.70;99.90
8481;DHT22;4277;51.354;6.740;2022-10-16T15:59:45;16.70;99.90
8481;DHT22;4277;51.354;6.740;2022-10-16T16:02:11;16.70;99.90
8481;DHT22;4277;51.354;6.740;2022-10-16T16:04:37;16.60;99.90
8481;DHT22;4277;51.354;6.740;2022-10-16T16:07:02;16.60;99.90
8481;DHT22;4277;51.354;6.740;2022-10-16T16:09:31;16.60;99.90
8481;DHT22;4277;51.354;6.740;2022-10-16T16:11:56;16.60;99.90
8481;DHT22;4277;51.354;6.740;2022-10-16T16:14:24;16.60;99.90
8481;DHT22;4277;51.354;6.740;2022-10-16T16:16:51;16.60;99.90
8481;DHT22;4277;51.354;6.740;2022-10-16T16:19:16;16.60;99.90
8481;DHT22;4277;51.354;6.740;2022-10-16T16:21:46;16.50;99.90
8481;DHT22;4277;51.354;6.740;2022-10-16T16:24:12;16.50;99.90
8481;DHT22;4277;51.354;6.740;2022-10-16T16:26:37;16.50;99.90
8481;DHT22;4277;51.354;6.740;2022-10-16T16:29:05;16.50;99.90
8481;DHT22;4277;51.354;6.740;2022-10-16T16:31:31;16.40;99.90
8481;DHT22;4277;51.354;6.740;2022-10-16T16:33:57;16.40;99.90
8481;DHT22;4277;51.354;6.740;2022-10-16T16:36:24;16.30;99.90
8481;DHT22;4277;51.354;6.740;2022-10-16T16:38:50;16.30;99.90
8481;DHT22;4277;51.354;6.740;2022-10-16T16:41:21;16.30;99.90
8481;DHT22;4277;51.354;6.740;2022-10-16T16:43:47;16.20;99.90
8481;DHT22;4277;51.354;6.740;2022-10-16T16:46:14;16.20;99.90
8481;DHT22;4277;51.354;6.740;2022-10-16T16:48:40;16.20;99.90
8481;DHT22;4277;51.354;6.740;2022-10-16T16:51:09;16.10;99.90
8481;DHT22;4277;51.354;6.740;2022-10-16T16:53:35;16.20;99.90
8481;DHT22;4277;51.354;6.740;2022-10-16T16:56:05;16.10;99.90
8481;DHT22;4277;51.354;6.740;2022-10-16T16:58:31;16.10;99.90
8481;DHT22;4277;51.354;6.740;2022-10-16T17:00:57;16.10;99.90
8481;DHT22;4277;51.354;6.740;2022-10-16T17:03:31;16.10;99.90
8481;DHT22;4277;51.354;6.740;2022-10-16T17:05:59;16.10;99.90
8481;DHT22;4277;51.354;6.740;2022-10-16T17:08:25;16.00;99.90
8481;DHT22;4277;51.354;6.740;2022-10-16T17:10:50;16.00;99.90
8481;DHT22;4277;51.354;6.740;2022-10-16T17:13:20;16.00;99.90
8481;DHT22;4277;51.354;6.740;2022-10-16T17:15:48;16.00;99.90
8481;DHT22;4277;51.354;6.740;2022-10-16T17:18:14;16.00;99.90
8481;DHT22;4277;51.354;6.740;2022-10-16T17:20:39;16.00;99.90
8481;DHT22;4277;51.354;6.740;2022-10-16T17:23:05;15.90;99.90
8481;DHT22;4277;51.354;6.740;2022-10-16T17:25:31;15.90;99.90
8481;DHT22;4277;51.354;6.740;2022-10-16T17:27:57;15.90;99.90
8481;DHT22;4277;51.354;6.740;2022-10-16T17:30:23;15.80;99.90
8481;DHT22;4277;51.354;6.740;2022-10-16T17:32:49;15.80;99.90
8481;DHT22;4277;51.354;6.740;2022-10-16T17:35:15;15.80;99.90
8481;DHT22;4277;51.354;6.740;2022-10-16T17:37:41;15.80;99.90
8481;DHT22;4277;51.354;6.740;2022-10-16T17:40:08;15.80;99.90
8481;DHT22;4277;51.354;6.740;2022-10-16T17:42:33;15.80;99.90
8481;DHT22;4277;51.354;6.740;2022-10-16T17:44:59;15.80;99.90
8481;DHT22;4277;51.354;6.740;2022-10-16T17:47:24;15.80;99.90